Terminal Aerodrome Forecast
Issued by NWS Mt. Holly, NJ

Home | Current Version | Previous Version | Text Only | Print | Product List | Glossary On
Versions: 1 2 3 4 5 6 7 8 9 10 11 12 13 14 15 16 17 18
000
FTUS41 KPHI 010800 AAA
TAFRDG
TAF AMD
KRDG 010802Z 0108/0206 20005KT P6SM FEW025 BKN050
      TEMPO 0110/0112 3SM BR BKN015
     FM011400 25005KT P6SM SCT025 BKN060
     FM011800 25008KT 5SM -SHRA BKN040
     FM020000 22005KT P6SM SCT040 BKN100
     FM020200 VRB02KT P6SM FEW050 SCT100=

USA.gov is the U.S. government's official web portal to all federal, state and local government web resources and services.